createdAt,value
2023-04-16T00:00:44.188Z,7.25
2023-04-16T00:01:44.177Z,7.28
2023-04-16T00:02:44.224Z,7.25
2023-04-16T00:03:44.167Z,7.24
2023-04-16T00:04:43.975Z,7.31
2023-04-16T00:05:43.858Z,7.33
2023-04-16T00:06:43.777Z,7.33
2023-04-16T00:07:43.709Z,7.28
2023-04-16T00:08:43.716Z,7.19
2023-04-16T00:09:43.579Z,7.34
2023-04-16T00:10:43.510Z,7.16
2023-04-16T00:11:43.442Z,7.31
2023-04-16T00:12:43.373Z,7.31
2023-04-16T00:13:43.307Z,7.33
2023-04-16T00:14:43.239Z,7.19
2023-04-16T00:15:43.164Z,7.13
2023-04-16T00:16:43.142Z,7.19
2023-04-16T00:17:43.057Z,7.19
2023-04-16T00:18:42.974Z,7.24
2023-04-16T00:19:42.898Z,7.19
2023-04-16T00:20:42.838Z,7.25
2023-04-16T00:21:42.765Z,7.22
2023-04-16T00:22:42.730Z,7.28
2023-04-16T00:23:42.661Z,7.28
2023-04-16T00:24:42.634Z,7.28
2023-04-16T00:25:42.505Z,7.28
2023-04-16T00:26:42.425Z,7.34
2023-04-16T00:27:42.363Z,7.31
2023-04-16T00:28:42.291Z,7.31
2023-04-16T00:29:42.225Z,7.18
2023-04-16T00:30:42.196Z,7.31
2023-04-16T00:31:42.081Z,7.22
2023-04-16T00:32:42.081Z,7.21
2023-04-16T00:33:41.952Z,7.22
2023-04-16T00:34:41.887Z,7.21
2023-04-16T00:35:41.816Z,7.26
2023-04-16T00:36:41.756Z,7.18
2023-04-16T00:37:41.675Z,7.28
2023-04-16T00:38:41.607Z,7.24
2023-04-16T00:39:41.544Z,7.21
2023-04-16T00:40:41.474Z,7.24
2023-04-16T00:41:41.411Z,7.26
2023-04-16T00:42:41.339Z,7.29
2023-04-16T00:43:41.266Z,7.25
2023-04-16T00:44:41.205Z,7.18
2023-04-16T00:45:41.138Z,7.25
2023-04-16T00:46:41.182Z,7.28
2023-04-16T00:47:41.045Z,7.26
2023-04-16T00:48:40.977Z,7.18
2023-04-16T00:49:40.860Z,7.22
2023-04-16T00:50:40.794Z,7.19
2023-04-16T00:51:40.742Z,7.26
2023-04-16T00:52:40.666Z,7.26
2023-04-16T00:53:40.593Z,7.29
2023-04-16T00:54:40.521Z,7.31
2023-04-16T00:55:40.456Z,7.31
2023-04-16T00:56:40.389Z,7.34
2023-04-16T00:57:40.324Z,7.21
2023-04-16T00:58:40.279Z,7.21
2023-04-16T00:59:40.184Z,7.16
2023-04-16T01:00:40.117Z,7.11
2023-04-16T01:01:40.093Z,7.18
2023-04-16T01:02:40.126Z,7.18
2023-04-16T01:03:40.021Z,7.19
2023-04-16T01:04:39.850Z,7.15
2023-04-16T01:05:39.781Z,7.11
2023-04-16T01:06:39.710Z,7.31
2023-04-16T01:07:39.643Z,7.21
2023-04-16T01:08:39.588Z,7.28
2023-04-16T01:09:39.527Z,7.21
2023-04-16T01:10:39.443Z,7.19
2023-04-16T01:11:39.377Z,7.15
2023-04-16T01:12:39.320Z,7.21
2023-04-16T01:13:39.351Z,7.18
2023-04-16T01:14:39.185Z,7.15
2023-04-16T01:15:39.138Z,7.18
2023-04-16T01:16:39.040Z,7.24
2023-04-16T01:17:38.991Z,7.15
2023-04-16T01:18:38.898Z,7.16
2023-04-16T01:19:38.832Z,7.31
2023-04-16T01:20:38.768Z,7.33
2023-04-16T01:21:38.700Z,7.26
2023-04-16T01:22:38.636Z,7.29
2023-04-16T01:23:38.563Z,7.22
2023-04-16T01:24:38.507Z,7.16
2023-04-16T01:25:38.424Z,7.21
2023-04-16T01:26:38.379Z,7.29
2023-04-16T01:27:38.288Z,7.21
2023-04-16T01:28:38.224Z,7.24
2023-04-16T01:29:38.159Z,7.28
2023-04-16T01:30:38.095Z,7.16
2023-04-16T01:31:38.103Z,7.29
2023-04-16T01:32:37.998Z,7.31
2023-04-16T01:33:37.888Z,7.31
2023-04-16T01:34:37.812Z,7.33
2023-04-16T01:35:37.750Z,7.26
2023-04-16T01:36:37.715Z,7.34
2023-04-16T01:37:37.614Z,7.25
2023-04-16T01:38:37.547Z,7.29
2023-04-16T01:39:37.485Z,7.36
2023-04-16T01:40:37.434Z,7.22
2023-04-16T01:41:37.346Z,7.34
2023-04-16T01:42:37.278Z,7.26
2023-04-16T01:43:39.594Z,7.31
2023-04-16T01:44:37.137Z,7.28
2023-04-16T01:45:37.089Z,7.26
2023-04-16T01:46:37.034Z,7.28
2023-04-16T01:47:36.959Z,7.33
2023-04-16T01:48:36.910Z,7.24
2023-04-16T01:49:36.811Z,7.29
2023-04-16T01:50:36.726Z,7.25
2023-04-16T01:51:36.660Z,7.33
2023-04-16T01:52:36.626Z,7.13
2023-04-16T01:53:37.204Z,7.22
2023-04-16T01:54:36.460Z,7.19
2023-04-16T01:55:36.391Z,7.28
2023-04-16T01:56:36.326Z,7.21
2023-04-16T01:57:36.254Z,7.26
2023-04-16T01:58:36.195Z,7.24
2023-04-16T01:59:36.118Z,7.26
2023-04-16T02:00:36.070Z,7.16
2023-04-16T02:01:35.985Z,7.16
2023-04-16T02:02:36.016Z,7.15
2023-04-16T02:03:35.983Z,7.25
2023-04-16T02:04:35.788Z,7.15
2023-04-16T02:05:35.716Z,7.24
2023-04-16T02:06:35.646Z,7.25
2023-04-16T02:07:35.584Z,7.22
2023-04-16T02:08:35.522Z,7.29
2023-04-16T02:09:35.446Z,7.34
2023-04-16T02:10:35.379Z,7.33
2023-04-16T02:11:35.313Z,7.25
2023-04-16T02:12:35.242Z,7.29
2023-04-16T02:13:35.173Z,7.29
2023-04-16T02:14:35.128Z,7.31
2023-04-16T02:15:35.035Z,7.24
2023-04-16T02:16:35.007Z,7.31
2023-04-16T02:17:34.928Z,7.26
2023-04-16T02:18:34.832Z,7.29
2023-04-16T02:19:34.761Z,7.24
2023-04-16T02:20:34.698Z,7.33
2023-04-16T02:21:34.630Z,7.31
2023-04-16T02:22:34.555Z,7.24
2023-04-16T02:23:34.488Z,7.29
2023-04-16T02:24:34.428Z,7.13
2023-04-16T02:25:34.354Z,7.22
2023-04-16T02:26:34.287Z,7.22
2023-04-16T02:27:34.222Z,7.22
2023-04-16T02:28:34.157Z,7.34
2023-04-16T02:29:34.089Z,7.25
2023-04-16T02:30:34.008Z,7.36
2023-04-16T02:31:33.979Z,7.33
2023-04-16T02:32:33.908Z,7.33
2023-04-16T02:33:33.817Z,7.28
2023-04-16T02:34:33.751Z,7.29
2023-04-16T02:35:33.673Z,7.33
2023-04-16T02:36:33.628Z,7.25
2023-04-16T02:37:33.537Z,7.43
2023-04-16T02:38:33.484Z,7.31
2023-04-16T02:39:33.412Z,7.26
2023-04-16T02:40:33.346Z,7.33
2023-04-16T02:41:33.266Z,7.33
2023-04-16T02:42:33.195Z,7.29
2023-04-16T02:43:33.131Z,7.28
2023-04-16T02:44:33.064Z,7.22
2023-04-16T02:45:33.024Z,7.22
2023-04-16T02:46:32.939Z,7.18
2023-04-16T02:47:32.912Z,7.28
2023-04-16T02:48:32.796Z,7.24
2023-04-16T02:49:32.726Z,7.19
2023-04-16T02:50:32.728Z,7.16
2023-04-16T02:51:32.607Z,7.26
2023-04-16T02:52:32.531Z,7.24
2023-04-16T02:53:32.460Z,7.26
2023-04-16T02:54:32.380Z,7.37
2023-04-16T02:55:32.322Z,7.40
2023-04-16T02:56:32.269Z,7.26
2023-04-16T02:57:32.181Z,7.42
2023-04-16T02:58:32.118Z,7.34
2023-04-16T02:59:32.049Z,7.43
2023-04-16T03:00:31.984Z,7.31
2023-04-16T03:01:32.116Z,7.31
2023-04-16T03:02:31.937Z,7.28
2023-04-16T03:03:31.787Z,7.22
2023-04-16T03:04:31.756Z,7.33
2023-04-16T03:05:31.648Z,7.28
2023-04-16T03:06:31.591Z,7.24
2023-04-16T03:07:31.506Z,7.21
2023-04-16T03:08:31.456Z,7.22
2023-04-16T03:09:31.373Z,7.31
2023-04-16T03:10:31.307Z,7.25
2023-04-16T03:11:31.236Z,7.28
2023-04-16T03:12:31.176Z,7.28
2023-04-16T03:13:31.107Z,7.28
2023-04-16T03:14:31.028Z,7.29
2023-04-16T03:15:30.985Z,7.28
2023-04-16T03:16:30.893Z,7.31
2023-04-16T03:17:30.867Z,7.31
2023-04-16T03:18:30.763Z,7.26
2023-04-16T03:19:30.692Z,7.25
2023-04-16T03:20:30.624Z,7.24
2023-04-16T03:21:30.558Z,7.31
2023-04-16T03:22:30.491Z,7.26
2023-04-16T03:23:30.423Z,7.28
2023-04-16T03:24:30.362Z,7.31
2023-04-16T03:25:30.286Z,7.31
2023-04-16T03:26:30.221Z,7.29
2023-04-16T03:27:30.153Z,7.26
2023-04-16T03:28:30.081Z,7.29
2023-04-16T03:29:30.017Z,7.26
2023-04-16T03:30:29.986Z,7.39
2023-04-16T03:31:29.927Z,7.34
2023-04-16T03:32:29.822Z,7.37
2023-04-16T03:33:29.746Z,7.49
2023-04-16T03:34:29.674Z,7.43
2023-04-16T03:35:29.610Z,7.40
2023-04-16T03:36:29.549Z,7.44
2023-04-16T03:37:29.493Z,7.52
2023-04-16T03:38:29.422Z,7.49
2023-04-16T03:39:29.337Z,7.50
2023-04-16T03:40:29.290Z,7.55
2023-04-16T03:41:29.205Z,7.52
2023-04-16T03:42:29.138Z,7.50
2023-04-16T03:43:29.067Z,7.52
2023-04-16T03:44:28.997Z,7.58
2023-04-16T03:45:28.937Z,7.55
2023-04-16T03:46:28.896Z,7.52
2023-04-16T03:47:28.827Z,7.61
2023-04-16T03:48:28.728Z,7.55
2023-04-16T03:49:28.661Z,7.54
2023-04-16T03:50:28.594Z,7.54
2023-04-16T03:51:28.529Z,7.55
2023-04-16T03:52:28.468Z,7.44
2023-04-16T03:53:28.397Z,7.46
2023-04-16T03:54:28.322Z,7.43
2023-04-16T03:55:28.259Z,7.50
2023-04-16T03:56:28.207Z,7.46
2023-04-16T03:57:28.122Z,7.43
2023-04-16T03:58:28.053Z,7.46
2023-04-16T03:59:27.992Z,7.43
2023-04-16T04:00:27.913Z,7.39
2023-04-16T04:01:27.848Z,7.43
2023-04-16T04:02:27.877Z,7.42
2023-04-16T04:03:27.937Z,7.40
2023-04-16T04:04:27.737Z,7.43
2023-04-16T04:05:27.576Z,7.42
2023-04-16T04:06:27.520Z,7.40
2023-04-16T04:07:27.450Z,7.44
2023-04-16T04:08:27.392Z,7.39
2023-04-16T04:09:27.308Z,7.49
2023-04-16T04:10:27.240Z,7.47
2023-04-16T04:11:27.188Z,7.52
2023-04-16T04:12:27.112Z,7.47
2023-04-16T04:13:27.042Z,7.46
2023-04-16T04:14:26.971Z,7.46
2023-04-16T04:15:26.906Z,7.54
2023-04-16T04:16:26.893Z,7.47
2023-04-16T04:17:26.819Z,7.47
2023-04-16T04:18:26.749Z,7.52
2023-04-16T04:19:26.631Z,7.60
2023-04-16T04:20:26.564Z,7.57
2023-04-16T04:21:26.498Z,7.61
2023-04-16T04:22:26.425Z,7.62
2023-04-16T04:23:26.362Z,7.60
2023-04-16T04:24:26.297Z,7.62
2023-04-16T04:25:26.228Z,7.66
2023-04-16T04:26:26.206Z,7.57
2023-04-16T04:27:26.098Z,7.58
2023-04-16T04:28:26.023Z,7.58
2023-04-16T04:29:25.954Z,7.55
2023-04-16T04:30:25.883Z,7.64
2023-04-16T04:31:25.831Z,7.49
2023-04-16T04:32:25.818Z,7.52
2023-04-16T04:33:25.687Z,7.50
2023-04-16T04:34:25.621Z,7.64
2023-04-16T04:35:25.553Z,7.60
2023-04-16T04:36:25.482Z,7.60
2023-04-16T04:37:25.416Z,7.60
2023-04-16T04:38:25.384Z,7.64
2023-04-16T04:39:25.280Z,7.58
2023-04-16T04:40:25.211Z,7.62
2023-04-16T04:41:25.140Z,7.62
2023-04-16T04:42:25.071Z,7.64
2023-04-16T04:43:25.010Z,7.60
2023-04-16T04:44:24.941Z,7.57
2023-04-16T04:45:24.888Z,7.61
2023-04-16T04:46:24.827Z,7.58
2023-04-16T04:47:24.764Z,7.58
2023-04-16T04:48:24.669Z,7.61
2023-04-16T04:49:24.620Z,7.58
2023-04-16T04:50:24.537Z,7.61
2023-04-16T04:51:24.470Z,7.62
2023-04-16T04:52:24.398Z,7.61
2023-04-16T04:53:24.343Z,7.68
2023-04-16T04:54:24.270Z,7.60
2023-04-16T04:55:24.190Z,7.61
2023-04-16T04:56:24.133Z,7.58
2023-04-16T04:57:24.059Z,7.58
2023-04-16T04:58:23.990Z,7.68
2023-04-16T04:59:23.922Z,7.62
2023-04-16T05:00:23.867Z,7.60
2023-04-16T05:01:23.852Z,7.66
2023-04-16T05:02:23.766Z,7.69
2023-04-16T05:03:23.734Z,7.77
2023-04-16T05:04:23.595Z,7.68
2023-04-16T05:05:23.549Z,7.73
2023-04-16T05:06:23.496Z,7.73
2023-04-16T05:07:23.389Z,7.66
2023-04-16T05:08:23.317Z,7.73
2023-04-16T05:09:23.246Z,7.69
2023-04-16T05:10:23.182Z,7.71
2023-04-16T05:11:23.143Z,7.74
2023-04-16T05:12:23.080Z,7.71
2023-04-16T05:13:22.991Z,7.73
2023-04-16T05:14:22.910Z,7.74
2023-04-16T05:15:22.850Z,7.68
2023-04-16T05:16:22.823Z,7.74
2023-04-16T05:17:22.767Z,7.73
2023-04-16T05:18:22.643Z,7.76
2023-04-16T05:19:22.579Z,7.69
2023-04-16T05:20:22.506Z,7.74
2023-04-16T05:21:22.443Z,7.74
2023-04-16T05:22:22.375Z,7.83
2023-04-16T05:23:22.375Z,7.73
2023-04-16T05:24:22.241Z,7.78
2023-04-16T05:25:22.172Z,7.76
2023-04-16T05:26:22.104Z,7.73
2023-04-16T05:27:22.035Z,7.83
2023-04-16T05:28:21.970Z,7.80
2023-04-16T05:29:21.909Z,7.80
2023-04-16T05:30:21.850Z,7.76
2023-04-16T05:31:21.829Z,7.81
2023-04-16T05:32:21.731Z,7.81
2023-04-16T05:33:21.652Z,7.74
2023-04-16T05:34:21.566Z,7.78
2023-04-16T05:35:21.493Z,7.83
2023-04-16T05:36:21.427Z,7.86
2023-04-16T05:37:21.356Z,7.91
2023-04-16T05:38:21.293Z,7.86
2023-04-16T05:39:21.247Z,8.01
2023-04-16T05:40:21.155Z,7.91
2023-04-16T05:41:21.106Z,7.91
2023-04-16T05:42:21.021Z,7.84
2023-04-16T05:43:20.948Z,7.87
2023-04-16T05:44:20.892Z,7.86
2023-04-16T05:45:20.813Z,7.87
2023-04-16T05:46:20.828Z,7.92
2023-04-16T05:47:20.694Z,7.91
2023-04-16T05:48:20.613Z,7.96
2023-04-16T05:49:20.550Z,7.92
2023-04-16T05:50:20.479Z,8.01
2023-04-16T05:51:20.425Z,7.94
2023-04-16T05:52:20.344Z,7.95
2023-04-16T05:53:20.295Z,7.86
2023-04-16T05:54:20.234Z,7.98
2023-04-16T05:55:20.142Z,7.88
2023-04-16T05:56:20.071Z,7.92
2023-04-16T05:57:20.005Z,7.87
2023-04-16T05:58:19.937Z,7.83
2023-04-16T05:59:19.871Z,7.98
2023-04-16T06:00:19.808Z,8.01
2023-04-16T06:01:19.737Z,8.04
2023-04-16T06:02:19.756Z,8.01
2023-04-16T06:03:19.682Z,8.01
2023-04-16T06:04:19.646Z,7.98
2023-04-16T06:05:19.492Z,8.09
2023-04-16T06:06:19.410Z,8.02
2023-04-16T06:07:19.334Z,8.02
2023-04-16T06:08:19.282Z,8.10
2023-04-16T06:09:19.209Z,8.06
2023-04-16T06:10:19.142Z,8.04
2023-04-16T06:11:19.081Z,8.10
2023-04-16T06:12:18.996Z,7.96
2023-04-16T06:13:18.925Z,7.96
2023-04-16T06:14:18.858Z,8.02
2023-04-16T06:15:18.796Z,7.98
2023-04-16T06:16:18.780Z,7.96
2023-04-16T06:17:18.671Z,8.02
2023-04-16T06:18:18.616Z,8.13
2023-04-16T06:19:18.533Z,8.13
2023-04-16T06:20:18.459Z,8.04
2023-04-16T06:21:18.395Z,8.06
2023-04-16T06:22:18.329Z,8.09
2023-04-16T06:23:18.267Z,7.99
2023-04-16T06:24:18.188Z,8.06
2023-04-16T06:25:18.309Z,8.12
2023-04-16T06:26:18.059Z,8.12
2023-04-16T06:27:17.982Z,8.14
2023-04-16T06:28:17.916Z,8.12
2023-04-16T06:29:17.848Z,8.06
2023-04-16T06:30:17.786Z,8.05
2023-04-16T06:31:17.737Z,8.14
2023-04-16T06:32:17.655Z,8.10
2023-04-16T06:33:17.577Z,8.13
2023-04-16T06:34:17.513Z,8.13
2023-04-16T06:35:17.448Z,8.14
2023-04-16T06:36:17.380Z,8.17
2023-04-16T06:37:17.304Z,8.09
2023-04-16T06:38:17.238Z,8.12
2023-04-16T06:39:17.203Z,8.13
2023-04-16T06:40:17.127Z,8.06
2023-04-16T06:41:17.036Z,8.12
2023-04-16T06:42:16.975Z,8.20
2023-04-16T06:43:16.907Z,8.19
2023-04-16T06:44:16.841Z,8.17
2023-04-16T06:45:16.796Z,8.16
2023-04-16T06:46:16.745Z,8.06
2023-04-16T06:47:16.654Z,8.12
2023-04-16T06:48:16.572Z,8.10
2023-04-16T06:49:16.502Z,8.06
2023-04-16T06:50:16.433Z,8.17
2023-04-16T06:51:16.365Z,8.24
2023-04-16T06:52:16.308Z,8.20
2023-04-16T06:53:16.233Z,8.17
2023-04-16T06:54:16.181Z,8.20
2023-04-16T06:55:16.098Z,8.29
2023-04-16T06:56:16.033Z,8.34
2023-04-16T06:57:15.966Z,8.24
2023-04-16T06:58:15.896Z,8.32
2023-04-16T06:59:15.839Z,8.37
2023-04-16T07:00:15.769Z,8.32
2023-04-16T07:01:15.729Z,8.35
2023-04-16T07:02:15.691Z,8.34
2023-04-16T07:03:15.675Z,8.35
2023-04-16T07:04:15.533Z,8.35
2023-04-16T07:05:15.429Z,8.34
2023-04-16T07:06:15.357Z,8.32
2023-04-16T07:07:15.300Z,8.35
2023-04-16T07:08:15.222Z,8.31
2023-04-16T07:09:15.154Z,8.37
2023-04-16T07:10:15.116Z,8.37
2023-04-16T07:11:15.028Z,8.34
2023-04-16T07:12:14.967Z,8.50
2023-04-16T07:13:14.888Z,8.44
2023-04-16T07:14:14.823Z,8.39
2023-04-16T07:15:14.767Z,8.49
2023-04-16T07:16:14.727Z,8.56
2023-04-16T07:17:14.644Z,8.59
2023-04-16T07:18:14.583Z,8.62
2023-04-16T07:19:14.487Z,8.56
2023-04-16T07:20:14.419Z,8.59
2023-04-16T07:21:14.356Z,8.57
2023-04-16T07:22:14.280Z,8.62
2023-04-16T07:23:14.216Z,8.57
2023-04-16T07:24:14.161Z,8.62
2023-04-16T07:25:14.112Z,8.70
2023-04-16T07:26:14.028Z,8.65
2023-04-16T07:27:13.945Z,8.65
2023-04-16T07:28:13.883Z,8.68
2023-04-16T07:29:13.825Z,8.62
2023-04-16T07:30:13.762Z,8.55
2023-04-16T07:31:13.681Z,8.67
2023-04-16T07:32:15.314Z,8.65
2023-04-16T07:33:13.543Z,8.75
2023-04-16T07:34:13.500Z,8.71
2023-04-16T07:35:13.448Z,8.68
2023-04-16T07:36:13.348Z,8.75
2023-04-16T07:37:13.279Z,8.75
2023-04-16T07:38:13.212Z,8.71
2023-04-16T07:39:13.171Z,8.68
2023-04-16T07:40:13.099Z,8.62
2023-04-16T07:41:13.018Z,8.68
2023-04-16T07:42:12.952Z,8.80
2023-04-16T07:43:12.884Z,8.81
2023-04-16T08:22:12.488Z,8.89
2023-04-16T08:23:13.198Z,8.89
2023-04-16T11:47:56.682Z,10.43
2023-04-16T19:24:56.103Z,9.75
2023-04-16T19:25:55.882Z,9.75
2023-04-16T19:26:55.522Z,9.80
2023-04-16T19:28:00.040Z,9.67
2023-04-16T19:28:53.795Z,9.77
2023-04-16T19:29:53.151Z,9.78
2023-04-16T19:30:53.122Z,9.69
2023-04-16T19:31:53.087Z,9.73
2023-04-16T19:32:54.670Z,9.75
2023-04-16T19:33:52.863Z,9.72
2023-04-16T19:34:52.801Z,9.66
2023-04-16T19:35:52.729Z,9.78
2023-04-16T19:36:52.693Z,9.72
2023-04-16T19:38:00.271Z,9.75
2023-04-16T20:21:11.467Z,9.06
